createdAt,value
2023-01-29T00:03:32.031Z,60.85
2023-01-29T00:08:52.924Z,60.98
2023-01-29T00:14:13.841Z,60.89
2023-01-29T00:19:34.715Z,60.46
2023-01-29T00:24:55.703Z,60.97
2023-01-29T00:30:19.702Z,60.78
2023-01-29T00:35:41.495Z,60.48
2023-01-29T00:41:31.379Z,60.27
2023-01-29T00:46:52.279Z,59.76
2023-01-29T00:52:25.510Z,59.72
2023-01-29T00:57:46.613Z,60.19
2023-01-29T01:03:07.755Z,59.92
2023-01-29T01:08:47.669Z,59.89
2023-01-29T01:14:08.490Z,59.67
2023-01-29T01:19:29.480Z,59.97
2023-01-29T01:24:50.434Z,60.42
2023-01-29T01:30:13.053Z,60.29
2023-01-29T01:35:34.204Z,60.72
2023-01-29T01:40:54.857Z,60.52
2023-01-29T01:46:15.731Z,60.40
2023-01-29T01:51:39.016Z,60.85
2023-01-29T01:57:09.406Z,60.50
2023-01-29T02:02:48.477Z,61.32
2023-01-29T02:08:28.689Z,60.93
2023-01-29T02:13:53.807Z,60.98
2023-01-29T02:19:34.188Z,60.87
2023-01-29T02:25:29.784Z,61.46
2023-01-29T02:31:03.161Z,61.01
2023-01-29T02:36:46.092Z,61.61
2023-01-29T02:42:21.849Z,61.34
2023-01-29T02:47:52.969Z,61.54
2023-01-29T02:53:32.465Z,60.77
2023-01-29T02:58:59.110Z,61.52
2023-01-29T03:04:24.552Z,60.97
2023-01-29T03:09:48.646Z,61.12
2023-01-29T03:15:11.646Z,61.07
2023-01-29T03:20:36.206Z,61.27
2023-01-29T03:26:16.779Z,61.05
2023-01-29T03:31:56.950Z,60.82
2023-01-29T03:37:35.016Z,60.20
2023-01-29T03:43:11.071Z,60.43
2023-01-29T03:48:36.597Z,60.26
2023-01-29T03:54:18.961Z,60.00
2023-01-29T03:59:54.937Z,60.26
2023-01-29T04:05:45.551Z,59.92
2023-01-29T04:11:15.453Z,60.67
2023-01-29T04:16:42.060Z,60.29
2023-01-29T04:22:37.035Z,60.96
2023-01-29T04:28:10.651Z,60.99
2023-01-29T04:33:54.973Z,60.83
2023-01-29T04:39:30.375Z,60.91
2023-01-29T04:44:58.570Z,61.58
2023-01-29T04:50:39.521Z,61.44
2023-01-29T04:56:32.474Z,61.53
2023-01-29T05:02:06.890Z,61.96
2023-01-29T05:07:27.519Z,61.96
2023-01-29T05:12:55.082Z,61.57
2023-01-29T05:18:16.222Z,61.65
2023-01-29T05:23:36.804Z,61.97
2023-01-29T05:28:57.829Z,61.39
2023-01-29T05:34:18.526Z,61.65
2023-01-29T05:39:39.420Z,61.08
2023-01-29T05:45:00.401Z,60.96
2023-01-29T05:50:21.575Z,60.25
2023-01-29T05:55:48.482Z,60.00
2023-01-29T06:01:14.458Z,60.80
2023-01-29T06:06:36.218Z,60.74
2023-01-29T06:11:57.683Z,61.02
2023-01-29T06:17:18.268Z,60.72
2023-01-29T06:22:38.972Z,60.71
2023-01-29T06:27:59.976Z,60.29
2023-01-29T06:33:20.824Z,59.71
2023-01-29T06:38:41.988Z,60.17
2023-01-29T06:44:02.794Z,60.06
2023-01-29T06:49:23.820Z,59.68
2023-01-29T06:54:44.596Z,59.61
2023-01-29T07:00:06.630Z,59.92
2023-01-29T07:05:27.621Z,59.65
2023-01-29T07:10:49.278Z,60.06
2023-01-29T07:16:10.379Z,59.29
2023-01-29T07:21:31.107Z,59.57
2023-01-29T07:26:52.022Z,59.60
2023-01-29T07:32:13.019Z,59.57
2023-01-29T07:37:33.672Z,59.61
2023-01-29T07:42:59.406Z,59.73
2023-01-29T07:48:20.945Z,59.40
2023-01-29T07:53:42.150Z,58.45
2023-01-29T07:59:03.386Z,59.52
2023-01-29T08:04:24.651Z,59.00
2023-01-29T08:09:48.022Z,57.70
2023-01-29T08:15:09.472Z,58.53
2023-01-29T08:20:30.511Z,58.49
2023-01-29T08:25:51.243Z,58.01
2023-01-29T08:31:18.228Z,58.06
2023-01-29T08:36:39.355Z,57.81
2023-01-29T08:41:59.918Z,56.84
2023-01-29T08:47:20.470Z,55.64
2023-01-29T08:52:41.252Z,54.48
2023-01-29T08:58:04.145Z,51.01
2023-01-29T09:03:25.026Z,47.28
2023-01-29T09:08:45.758Z,46.38
2023-01-29T09:14:06.363Z,39.09
2023-01-29T09:19:27.089Z,34.71
2023-01-29T09:24:47.886Z,30.08
2023-01-29T09:30:09.232Z,25.58
2023-01-29T09:35:30.166Z,27.01
2023-01-29T09:40:54.889Z,26.38
2023-01-29T09:46:23.022Z,27.04
2023-01-29T09:51:46.803Z,26.79
2023-01-29T09:57:08.012Z,25.94
2023-01-29T10:02:53.607Z,25.99
2023-01-29T10:08:46.769Z,24.53
2023-01-29T10:14:31.188Z,25.92
2023-01-29T10:19:51.615Z,24.84
2023-01-29T10:25:20.437Z,26.28
2023-01-29T10:30:41.704Z,27.04
2023-01-29T10:36:04.895Z,26.79
2023-01-29T10:41:42.494Z,27.54
2023-01-29T10:47:12.385Z,27.95
2023-01-29T10:52:55.930Z,28.67
2023-01-29T10:58:30.018Z,30.51
2023-01-29T11:04:01.939Z,31.02
2023-01-29T11:15:07.207Z,32.47
2023-01-29T11:20:28.356Z,32.17
2023-01-29T11:25:52.876Z,32.92
2023-01-29T11:31:18.018Z,33.97
2023-01-29T11:36:39.769Z,33.14
2023-01-29T11:42:04.642Z,34.34
2023-01-29T11:47:29.386Z,35.00
2023-01-29T11:52:50.311Z,35.29
2023-01-29T11:58:17.975Z,38.06
2023-01-29T12:03:41.659Z,37.96
2023-01-29T12:09:03.174Z,38.46
2023-01-29T12:14:27.231Z,39.88
2023-01-29T12:19:56.551Z,39.08
2023-01-29T12:25:45.388Z,40.05
2023-01-29T12:31:25.013Z,40.53
2023-01-29T12:36:55.005Z,40.06
2023-01-29T12:42:19.275Z,39.86
2023-01-29T12:47:43.083Z,40.70
2023-01-29T12:53:10.000Z,40.75
2023-01-29T12:58:35.161Z,40.96
2023-01-29T13:04:26.457Z,41.65
2023-01-29T13:09:50.803Z,41.68
2023-01-29T13:15:25.386Z,42.52
2023-01-29T13:20:46.499Z,43.08
2023-01-29T13:26:07.691Z,43.07
2023-01-29T13:31:31.647Z,43.55
2023-01-29T13:36:54.582Z,43.19
2023-01-29T13:42:37.547Z,43.33
2023-01-29T13:48:22.347Z,45.02
2023-01-29T13:53:43.586Z,44.55
2023-01-29T13:59:05.532Z,44.44
2023-01-29T14:04:28.398Z,44.28
2023-01-29T14:09:49.307Z,45.05
2023-01-29T14:15:21.248Z,45.09
2023-01-29T14:20:48.650Z,44.95
2023-01-29T14:26:32.301Z,45.74
2023-01-29T14:32:14.735Z,45.19
2023-01-29T14:37:37.242Z,46.00
2023-01-29T14:43:01.955Z,46.67
2023-01-29T14:48:35.213Z,46.25
2023-01-29T14:54:01.772Z,46.66
2023-01-29T14:59:27.074Z,46.82
2023-01-29T15:04:52.441Z,47.23
2023-01-29T15:10:40.533Z,47.32
2023-01-29T15:16:09.310Z,47.93
2023-01-29T15:21:30.799Z,48.21
2023-01-29T15:26:51.924Z,48.55
2023-01-29T15:32:29.725Z,48.93
2023-01-29T15:38:01.587Z,49.55
2023-01-29T15:43:26.873Z,49.25
2023-01-29T15:48:49.079Z,50.16
2023-01-29T15:54:10.964Z,50.18
2023-01-29T15:59:34.742Z,50.30
2023-01-29T16:04:55.787Z,50.50
2023-01-29T16:10:18.958Z,51.49
2023-01-29T16:15:40.896Z,51.45
2023-01-29T16:21:05.436Z,51.71
2023-01-29T16:26:27.143Z,53.55
2023-01-29T16:31:48.195Z,52.29
2023-01-29T16:37:30.336Z,53.47
2023-01-29T16:42:52.762Z,53.42
2023-01-29T16:48:26.526Z,53.99
2023-01-29T16:53:59.942Z,54.58
2023-01-29T16:59:26.860Z,54.32
2023-01-29T17:04:48.166Z,55.61
2023-01-29T17:10:16.895Z,55.30
2023-01-29T17:15:43.776Z,55.93
2023-01-29T17:21:05.052Z,56.29
2023-01-29T17:26:26.473Z,56.49
2023-01-29T17:31:47.538Z,56.53
2023-01-29T17:37:12.666Z,57.00
2023-01-29T17:42:33.797Z,56.96
2023-01-29T17:47:54.625Z,58.03
2023-01-29T17:53:15.964Z,57.76
2023-01-29T17:58:37.109Z,57.41
2023-01-29T18:03:57.906Z,58.34
2023-01-29T18:09:20.662Z,57.67
2023-01-29T18:14:41.746Z,58.93
2023-01-29T18:20:03.106Z,58.47
2023-01-29T18:25:25.722Z,59.30
2023-01-29T18:30:47.559Z,58.72
2023-01-29T18:36:08.893Z,58.75
2023-01-29T18:41:29.794Z,59.48
2023-01-29T18:46:50.633Z,60.19
2023-01-29T18:52:11.369Z,59.78
2023-01-29T18:58:25.089Z,59.57
2023-01-29T19:03:14.376Z,59.72
2023-01-29T19:08:35.144Z,60.42
2023-01-29T19:13:55.992Z,61.02
2023-01-29T19:19:16.862Z,60.73
2023-01-29T19:24:39.109Z,61.14
2023-01-29T19:30:00.516Z,61.40
2023-01-29T19:35:21.814Z,61.30
2023-01-29T19:40:42.905Z,61.72
2023-01-29T19:46:03.910Z,62.35
2023-01-29T19:51:24.703Z,61.73
2023-01-29T19:56:45.416Z,62.03
2023-01-29T20:02:06.550Z,61.98
2023-01-29T20:07:27.751Z,61.95
2023-01-29T20:12:48.936Z,62.41
2023-01-29T20:18:12.105Z,62.81
2023-01-29T20:23:38.171Z,63.12
2023-01-29T20:28:59.268Z,63.42
2023-01-29T20:34:20.071Z,64.01
2023-01-29T20:39:40.795Z,63.67
2023-01-29T20:45:01.644Z,63.19
2023-01-29T20:50:22.284Z,64.27
2023-01-29T20:55:43.429Z,63.62
2023-01-29T21:01:11.674Z,64.04
2023-01-29T21:06:32.447Z,63.90
2023-01-29T21:11:53.113Z,64.38
2023-01-29T21:17:13.632Z,64.54
2023-01-29T21:22:34.634Z,64.55
2023-01-29T21:27:55.266Z,64.94
2023-01-29T21:33:16.027Z,65.27
2023-01-29T21:38:37.059Z,65.04
2023-01-29T21:43:57.998Z,66.00
2023-01-29T21:49:19.005Z,65.33
2023-01-29T21:54:40.104Z,65.64
2023-01-29T22:00:02.257Z,65.98
2023-01-29T22:05:26.728Z,65.72
2023-01-29T22:10:47.934Z,65.83
2023-01-29T22:16:09.135Z,66.63
2023-01-29T22:21:30.169Z,66.01
2023-01-29T22:26:51.298Z,66.41
2023-01-29T22:32:13.310Z,66.47
2023-01-29T22:37:33.955Z,66.84
2023-01-29T22:42:54.684Z,67.01
2023-01-29T22:48:15.417Z,66.89
2023-01-29T22:53:44.247Z,67.12
2023-01-29T22:59:05.460Z,67.20
2023-01-29T23:04:26.400Z,67.61
2023-01-29T23:09:46.954Z,68.10
2023-01-29T23:15:07.982Z,67.93
2023-01-29T23:20:28.829Z,68.21
2023-01-29T23:26:08.552Z,67.82
2023-01-29T23:31:30.056Z,67.86
2023-01-29T23:36:50.896Z,68.56
2023-01-29T23:42:11.649Z,67.88
2023-01-29T23:47:32.513Z,68.67
2023-01-29T23:52:53.005Z,68.38
2023-01-29T23:58:13.690Z,68.13
